createdAt,value
2024-02-03T00:44:02.772Z,7.61
2024-02-03T00:50:19.721Z,7.60
2024-02-03T01:40:28.255Z,7.57
2024-02-03T01:46:36.922Z,7.54
2024-02-03T01:52:52.401Z,7.54
2024-02-03T01:59:18.284Z,7.56
2024-02-03T02:25:04.646Z,7.67
2024-02-03T02:31:30.536Z,7.64
2024-02-03T02:37:56.154Z,7.61
2024-02-03T02:44:02.807Z,7.60
2024-02-03T02:50:52.306Z,7.62
2024-02-03T02:57:22.329Z,7.58
2024-02-03T03:03:28.039Z,7.57
2024-02-03T03:41:20.011Z,7.44
2024-02-03T03:47:06.239Z,7.38
2024-02-03T03:59:52.510Z,7.37
2024-02-03T04:06:09.482Z,7.30
2024-02-03T04:12:26.898Z,7.25
2024-02-03T04:18:33.861Z,7.28
2024-02-03T04:24:58.400Z,7.32
2024-02-03T04:56:35.530Z,7.70
2024-02-03T05:03:03.555Z,7.76
2024-02-03T05:34:21.038Z,8.10
2024-02-03T05:40:06.752Z,8.14
2024-02-03T05:46:13.070Z,8.15
2024-02-03T05:52:30.987Z,8.21
2024-02-03T05:59:13.106Z,8.21
2024-02-03T06:04:59.683Z,8.28
2024-02-03T06:11:17.316Z,8.33
2024-02-03T06:17:09.891Z,8.40
2024-02-03T06:23:15.472Z,8.41
2024-02-03T06:28:59.772Z,8.48
2024-02-03T06:35:03.380Z,8.54
2024-02-03T06:41:11.377Z,8.54
2024-02-03T06:47:05.891Z,8.54
2024-02-03T06:53:14.146Z,8.54
2024-02-03T06:59:40.101Z,8.52
2024-02-03T07:05:47.530Z,8.53
2024-02-03T07:12:14.029Z,8.55
2024-02-03T07:24:31.704Z,8.57
2024-02-03T07:42:19.970Z,8.64
2024-02-03T08:16:51.961Z,8.88
2024-02-03T08:22:22.423Z,8.93
2024-02-03T08:27:40.450Z,8.99
2024-02-03T08:33:13.688Z,9.06
2024-02-03T08:38:35.202Z,9.12
2024-02-03T08:44:55.010Z,9.12
2024-02-03T08:50:25.894Z,9.03
2024-02-03T08:55:37.146Z,8.94
2024-02-03T09:00:51.410Z,8.85
2024-02-03T09:07:07.682Z,8.74
2024-02-03T09:12:16.114Z,8.63
2024-02-03T09:17:39.187Z,8.60
2024-02-03T09:23:09.615Z,8.62
2024-02-03T09:28:18.449Z,8.61
2024-02-03T09:33:28.750Z,8.63
2024-02-03T09:39:23.658Z,8.59
2024-02-03T09:44:39.744Z,8.56
2024-02-03T09:49:57.174Z,8.53
2024-02-03T09:55:48.168Z,8.52
2024-02-03T10:01:47.641Z,8.48
2024-02-03T10:07:18.460Z,8.53
2024-02-03T10:12:56.757Z,8.68
2024-02-03T10:18:21.468Z,8.84
2024-02-03T10:24:23.915Z,9.01
2024-02-03T10:29:56.192Z,9.12
2024-02-03T10:35:08.442Z,9.18
2024-02-03T10:40:32.863Z,9.35
2024-02-03T10:45:44.952Z,9.47
2024-02-03T10:50:56.972Z,9.51
2024-02-03T10:56:32.025Z,9.54
2024-02-03T11:01:54.696Z,9.62
2024-02-03T11:07:09.550Z,9.75
2024-02-03T11:12:37.024Z,9.70
2024-02-03T11:17:48.336Z,9.71
2024-02-03T11:23:17.456Z,9.77
2024-02-03T11:28:25.121Z,9.80
2024-02-03T11:33:59.722Z,9.78
2024-02-03T11:40:28.566Z,9.71
2024-02-03T11:46:16.219Z,9.55
2024-02-03T11:52:27.172Z,9.54
2024-02-03T12:04:35.335Z,9.63
2024-02-03T12:10:05.038Z,9.70
2024-02-03T12:16:19.708Z,9.79
2024-02-03T12:22:37.366Z,9.92
2024-02-03T12:28:57.108Z,9.98
2024-02-03T12:34:53.967Z,9.95
2024-02-03T12:40:40.798Z,10.07
2024-02-03T12:46:26.905Z,10.15
2024-02-03T12:51:57.572Z,10.22
2024-02-03T12:58:10.197Z,10.16
2024-02-03T13:03:34.812Z,10.11
2024-02-03T13:09:20.961Z,9.90
2024-02-03T13:15:16.764Z,9.70
2024-02-03T13:21:35.391Z,9.69
2024-02-03T13:27:36.031Z,9.75
2024-02-03T13:33:58.175Z,9.84
2024-02-03T13:40:37.252Z,9.85
2024-02-03T13:46:46.029Z,9.87
2024-02-03T13:53:17.270Z,9.87
2024-02-03T13:59:37.152Z,9.91
2024-02-03T14:13:21.589Z,9.99
2024-02-03T14:19:49.380Z,9.97
2024-02-03T14:25:59.856Z,9.94
2024-02-03T14:32:13.311Z,9.90
2024-02-03T14:38:32.964Z,9.84
2024-02-03T14:44:07.897Z,9.77
2024-02-03T14:50:14.789Z,9.68
2024-02-03T15:01:40.475Z,9.54
2024-02-03T15:07:09.421Z,9.55
2024-02-03T15:13:06.753Z,9.58
2024-02-03T15:18:55.326Z,9.63
2024-02-03T15:24:03.136Z,9.66
2024-02-03T15:29:09.137Z,9.69
2024-02-03T15:35:16.293Z,9.65
2024-02-03T15:41:26.705Z,9.64
2024-02-03T15:47:46.033Z,9.54
2024-02-03T15:53:34.732Z,9.52
2024-02-03T16:04:56.217Z,9.37
2024-02-03T16:10:16.691Z,9.36
2024-02-03T16:16:06.402Z,9.28
2024-02-03T16:21:53.077Z,9.22
2024-02-03T16:27:01.666Z,9.20
2024-02-03T16:32:13.034Z,9.19
2024-02-03T16:37:49.246Z,9.17
2024-02-03T16:43:38.367Z,9.18
2024-02-03T16:49:14.878Z,9.16
2024-02-03T16:55:02.377Z,9.14
2024-02-03T17:01:12.154Z,9.17
2024-02-03T17:07:14.197Z,9.19
2024-02-03T17:13:01.348Z,9.17
2024-02-03T17:19:12.756Z,9.15
2024-02-03T17:25:42.724Z,9.12
2024-02-03T17:31:25.455Z,9.13
2024-02-03T17:37:22.975Z,9.11
2024-02-03T17:43:48.554Z,9.17
2024-02-03T17:49:17.339Z,9.18
2024-02-03T17:54:28.368Z,9.17
2024-02-03T17:59:47.693Z,9.19
2024-02-03T18:05:08.492Z,9.19
2024-02-03T18:10:59.603Z,9.20
2024-02-03T18:16:47.206Z,9.22
2024-02-03T18:22:52.977Z,9.29
2024-02-03T18:29:10.260Z,9.33
2024-02-03T18:35:39.493Z,9.32
2024-02-03T19:04:57.183Z,9.31
2024-02-03T19:16:17.213Z,9.18
2024-02-03T19:21:46.146Z,9.05
2024-02-03T19:27:03.158Z,8.92
2024-02-03T19:37:49.091Z,8.75
2024-02-03T19:43:08.922Z,8.70
2024-02-03T19:49:15.690Z,8.67
2024-02-03T19:55:07.148Z,8.64
2024-02-03T20:00:38.173Z,8.63
2024-02-03T20:05:58.188Z,8.64
2024-02-03T20:11:52.389Z,8.68
2024-02-03T20:18:03.091Z,8.76
2024-02-03T20:23:39.885Z,8.74
2024-02-03T20:41:24.451Z,8.56
2024-02-03T20:46:34.044Z,8.51
2024-02-03T20:52:29.442Z,8.47
2024-02-03T20:58:28.639Z,8.51
2024-02-03T21:04:23.211Z,8.56
2024-02-03T21:09:59.764Z,8.56
2024-02-03T21:15:25.488Z,8.55
2024-02-03T21:20:42.707Z,8.63
2024-02-03T21:25:48.277Z,8.68
2024-02-03T21:30:56.649Z,8.67
2024-02-03T21:36:35.682Z,8.59
2024-02-03T21:42:09.620Z,8.54
2024-02-03T21:47:33.644Z,8.47
2024-02-03T21:52:47.773Z,8.42
2024-02-03T21:57:56.641Z,8.42
2024-02-03T22:03:04.220Z,8.41
2024-02-03T22:08:45.343Z,8.38
2024-02-03T22:14:20.681Z,8.33
2024-02-03T22:19:28.610Z,8.31
2024-02-03T22:24:42.869Z,8.27
2024-02-03T22:30:04.891Z,8.24
2024-02-03T22:35:18.832Z,8.18
2024-02-03T22:40:27.082Z,8.11
2024-02-03T22:45:48.069Z,8.05
2024-02-03T22:51:36.830Z,7.99
2024-02-03T22:57:47.274Z,7.95
2024-02-03T23:03:35.347Z,7.92
2024-02-03T23:09:03.284Z,7.93
2024-02-03T23:14:36.236Z,7.94
2024-02-03T23:19:56.820Z,7.95
2024-02-03T23:25:23.644Z,7.95
2024-02-03T23:31:49.318Z,7.97
2024-02-03T23:38:14.101Z,7.98
2024-02-03T23:44:15.914Z,7.98
2024-02-03T23:50:21.622Z,7.99
2024-02-03T23:57:04.885Z,7.99
